createdAt,value
2022-08-24T00:00:26.071Z,17.51
2022-08-24T00:02:52.839Z,17.48
2022-08-24T00:05:21.460Z,17.49
2022-08-24T00:07:49.602Z,17.47
2022-08-24T00:10:17.423Z,17.50
2022-08-24T00:12:44.075Z,17.49
2022-08-24T00:15:13.457Z,17.47
2022-08-24T00:17:40.561Z,17.42
2022-08-24T00:20:09.657Z,17.37
2022-08-24T00:22:36.283Z,17.31
2022-08-24T00:25:03.943Z,17.24
2022-08-24T00:27:30.779Z,17.17
2022-08-24T00:29:57.684Z,17.16
2022-08-24T00:32:24.403Z,17.14
2022-08-24T00:34:59.296Z,17.14
2022-08-24T00:37:28.730Z,17.17
2022-08-24T00:39:56.433Z,17.17
2022-08-24T00:42:24.794Z,17.16
2022-08-24T00:44:52.199Z,17.15
2022-08-24T00:47:25.742Z,17.11
2022-08-24T00:49:58.528Z,17.11
2022-08-24T00:52:33.581Z,17.05
2022-08-24T00:55:09.715Z,16.99
2022-08-24T00:57:40.346Z,16.98
2022-08-24T01:00:15.747Z,16.93
2022-08-24T01:02:45.738Z,16.87
2022-08-24T01:05:13.023Z,16.82
2022-08-24T01:07:40.645Z,16.77
2022-08-24T01:10:13.685Z,16.75
2022-08-24T01:12:48.235Z,16.70
2022-08-24T01:15:27.347Z,16.65
2022-08-24T01:18:13.073Z,16.63
2022-08-24T01:20:40.051Z,16.68
2022-08-24T01:23:36.796Z,16.74
2022-08-24T01:26:05.354Z,16.78
2022-08-24T01:28:33.608Z,16.82
2022-08-24T01:31:03.909Z,16.74
2022-08-24T01:33:32.060Z,16.57
2022-08-24T01:36:04.999Z,16.40
2022-08-24T01:38:33.430Z,16.29
2022-08-24T01:41:02.896Z,16.22
2022-08-24T01:43:30.439Z,16.19
2022-08-24T01:45:58.583Z,16.19
2022-08-24T01:48:25.305Z,16.21
2022-08-24T01:50:53.894Z,16.24
2022-08-24T01:53:22.824Z,16.24
2022-08-24T01:55:50.417Z,16.21
2022-08-24T01:58:18.341Z,16.15
2022-08-24T02:00:45.427Z,16.12
2022-08-24T02:03:14.009Z,16.08
2022-08-24T02:05:42.849Z,16.10
2022-08-24T02:08:14.370Z,16.06
2022-08-24T02:10:41.010Z,16.07
2022-08-24T02:13:15.919Z,16.06
2022-08-24T02:15:42.791Z,16.01
2022-08-24T02:18:15.615Z,16.03
2022-08-24T02:20:44.391Z,16.00
2022-08-24T02:23:11.031Z,16.01
2022-08-24T02:25:37.745Z,15.99
2022-08-24T02:28:04.858Z,15.93
2022-08-24T02:30:32.778Z,15.85
2022-08-24T02:33:00.268Z,15.72
2022-08-24T02:35:29.787Z,15.70
2022-08-24T02:37:57.667Z,15.64
2022-08-24T02:40:27.284Z,15.58
2022-08-24T02:42:55.685Z,15.52
2022-08-24T02:45:22.326Z,15.51
2022-08-24T02:47:49.644Z,15.49
2022-08-24T02:50:17.817Z,15.46
2022-08-24T02:52:45.396Z,15.42
2022-08-24T02:55:15.712Z,15.40
2022-08-24T02:57:47.898Z,15.35
2022-08-24T03:00:17.503Z,15.25
2022-08-24T03:02:51.569Z,15.18
2022-08-24T03:05:18.922Z,15.13
2022-08-24T03:07:45.554Z,15.09
2022-08-24T03:10:12.625Z,15.11
2022-08-24T03:12:39.659Z,15.13
2022-08-24T03:15:10.583Z,15.10
2022-08-24T03:17:39.909Z,15.05
2022-08-24T03:20:12.157Z,14.99
2022-08-24T03:22:39.781Z,14.92
2022-08-24T03:25:07.690Z,14.91
2022-08-24T03:27:34.794Z,14.91
2022-08-24T03:30:01.549Z,14.93
2022-08-24T03:32:29.039Z,14.93
2022-08-24T03:34:55.952Z,14.91
2022-08-24T03:37:22.549Z,14.90
2022-08-24T03:39:51.023Z,14.92
2022-08-24T03:42:18.615Z,14.91
2022-08-24T03:44:45.373Z,14.93
2022-08-24T03:47:12.120Z,14.96
2022-08-24T03:49:39.581Z,14.97
2022-08-24T03:52:07.450Z,15.00
2022-08-24T03:54:34.732Z,14.98
2022-08-24T03:57:01.750Z,14.91
2022-08-24T03:59:28.686Z,14.81
2022-08-24T04:01:58.323Z,14.75
2022-08-24T04:04:26.738Z,14.74
2022-08-24T04:06:53.429Z,14.76
2022-08-24T04:09:20.868Z,14.75
2022-08-24T04:11:47.777Z,14.73
2022-08-24T04:14:27.579Z,14.73
2022-08-24T04:17:14.213Z,14.76
2022-08-24T04:19:57.632Z,14.84
2022-08-24T04:22:30.580Z,14.96
2022-08-24T04:24:57.336Z,15.05
2022-08-24T04:27:24.490Z,15.07
2022-08-24T04:29:51.308Z,15.06
2022-08-24T04:32:18.758Z,15.03
2022-08-24T04:34:47.050Z,15.03
2022-08-24T04:37:14.718Z,14.99
2022-08-24T04:39:42.288Z,14.99
2022-08-24T04:42:24.389Z,15.05
2022-08-24T04:44:52.388Z,15.06
2022-08-24T04:47:22.355Z,15.08
2022-08-24T04:49:49.017Z,15.06
2022-08-24T04:52:15.926Z,15.00
2022-08-24T04:54:43.118Z,14.91
2022-08-24T04:57:18.010Z,14.92
2022-08-24T04:59:46.574Z,14.90
2022-08-24T05:02:13.366Z,14.86
2022-08-24T05:04:40.140Z,14.87
2022-08-24T05:07:07.543Z,14.91
2022-08-24T05:09:34.416Z,14.98
2022-08-24T05:12:01.951Z,15.05
2022-08-24T05:14:33.439Z,15.10
2022-08-24T05:17:00.374Z,15.11
2022-08-24T05:19:30.741Z,15.14
2022-08-24T05:21:57.525Z,15.20
2022-08-24T05:24:24.935Z,15.28
2022-08-24T05:26:53.131Z,15.41
2022-08-24T05:29:20.770Z,15.55
2022-08-24T05:31:49.822Z,15.68
2022-08-24T05:34:17.995Z,15.84
2022-08-24T05:36:45.576Z,15.98
2022-08-24T05:39:21.275Z,16.10
2022-08-24T05:41:54.184Z,16.21
2022-08-24T05:44:30.760Z,16.33
2022-08-24T05:47:01.125Z,16.42
2022-08-24T05:49:28.523Z,16.58
2022-08-24T05:51:55.548Z,16.68
2022-08-24T05:54:23.396Z,16.84
2022-08-24T05:57:04.668Z,17.01
2022-08-24T05:59:36.876Z,17.18
2022-08-24T06:02:09.625Z,17.29
2022-08-24T06:04:38.184Z,17.44
2022-08-24T06:07:06.332Z,17.61
2022-08-24T06:09:34.552Z,17.69
2022-08-24T06:12:01.120Z,17.77
2022-08-24T06:14:28.136Z,17.83
2022-08-24T06:16:57.973Z,17.87
2022-08-24T06:19:26.962Z,17.92
2022-08-24T06:21:55.396Z,17.98
2022-08-24T06:24:45.983Z,18.07
2022-08-24T06:27:23.982Z,18.17
2022-08-24T06:30:05.147Z,18.28
2022-08-24T06:32:52.019Z,18.33
2022-08-24T06:35:26.330Z,18.46
2022-08-24T06:37:55.250Z,18.61
2022-08-24T06:40:25.886Z,18.70
2022-08-24T06:42:54.662Z,18.78
2022-08-24T06:45:43.825Z,18.82
2022-08-24T06:48:12.634Z,18.83
2022-08-24T06:50:40.503Z,18.84
2022-08-24T06:53:07.130Z,18.94
2022-08-24T06:55:34.777Z,18.99
2022-08-24T06:58:02.694Z,19.04
2022-08-24T07:00:30.751Z,19.13
2022-08-24T07:02:57.472Z,19.22
2022-08-24T07:05:24.239Z,19.27
2022-08-24T07:08:09.198Z,19.36
2022-08-24T07:10:38.153Z,19.43
2022-08-24T07:13:05.060Z,19.54
2022-08-24T07:15:31.912Z,19.69
2022-08-24T07:18:12.659Z,19.79
2022-08-24T07:20:42.722Z,19.85
2022-08-24T07:23:22.088Z,19.94
2022-08-24T07:26:21.132Z,20.06
2022-08-24T07:28:52.393Z,20.15
2022-08-24T07:31:21.153Z,20.22
2022-08-24T07:33:59.660Z,20.31
2022-08-24T07:36:28.467Z,20.43
2022-08-24T07:38:57.350Z,20.47
2022-08-24T07:44:17.418Z,20.60
2022-08-24T07:46:45.184Z,20.65
2022-08-24T07:49:31.646Z,20.67
2022-08-24T07:52:01.906Z,20.66
2022-08-24T07:54:29.089Z,20.71
2022-08-24T07:56:59.992Z,20.80
2022-08-24T07:59:27.094Z,20.87
2022-08-24T08:01:53.742Z,20.93
2022-08-24T08:04:24.280Z,21.03
2022-08-24T08:06:52.085Z,21.03
2022-08-24T08:09:20.004Z,21.07
2022-08-24T08:11:46.696Z,21.10
2022-08-24T08:14:14.906Z,21.19
2022-08-24T08:16:41.998Z,21.26
2022-08-24T08:19:10.635Z,21.36
2022-08-24T08:22:04.528Z,21.44
2022-08-24T08:24:36.926Z,21.50
2022-08-24T08:27:03.731Z,21.57
2022-08-24T08:29:39.556Z,21.63
2022-08-24T08:32:07.937Z,21.73
2022-08-24T08:34:34.627Z,21.85
2022-08-24T08:37:03.627Z,21.96
2022-08-24T08:39:30.494Z,22.04
2022-08-24T08:42:17.096Z,22.10
2022-08-24T08:45:27.119Z,22.20
2022-08-24T08:48:39.654Z,22.27
2022-08-24T08:51:40.785Z,22.31
2022-08-24T08:54:26.501Z,22.44
2022-08-24T08:57:17.458Z,22.59
2022-08-24T09:00:10.081Z,22.72
2022-08-24T09:03:03.514Z,22.77
2022-08-24T09:06:10.756Z,22.90
2022-08-24T09:09:03.580Z,23.01
2022-08-24T09:11:43.612Z,23.05
2022-08-24T09:14:44.858Z,23.12
2022-08-24T09:17:33.303Z,23.15
2022-08-24T09:20:31.545Z,23.16
2022-08-24T09:23:30.549Z,23.21
2022-08-24T09:26:19.193Z,23.31
2022-08-24T09:29:03.708Z,23.38
2022-08-24T09:31:51.724Z,23.45
2022-08-24T09:34:25.921Z,23.51
2022-08-24T09:36:57.321Z,23.63
2022-08-24T09:39:53.389Z,23.80
2022-08-24T09:42:52.246Z,24.02
2022-08-24T09:45:52.240Z,24.20
2022-08-24T09:48:24.730Z,24.24
2022-08-24T09:51:06.283Z,24.37
2022-08-24T09:53:56.810Z,24.52
2022-08-24T09:57:12.107Z,24.64
2022-08-24T09:59:48.472Z,24.76
2022-08-24T10:02:56.407Z,24.81
2022-08-24T10:05:42.088Z,24.87
2022-08-24T10:08:47.231Z,24.96
2022-08-24T10:11:35.512Z,25.01
2022-08-24T10:14:34.199Z,25.04
2022-08-24T10:17:37.015Z,25.13
2022-08-24T10:20:16.865Z,25.27
2022-08-24T10:23:05.747Z,25.43
2022-08-24T10:26:00.364Z,25.52
2022-08-24T10:29:10.231Z,25.55
2022-08-24T10:31:37.023Z,25.59
2022-08-24T10:34:22.762Z,25.77
2022-08-24T10:37:08.431Z,25.90
2022-08-24T10:40:22.054Z,26.02
2022-08-24T10:43:35.612Z,26.17
2022-08-24T10:46:45.590Z,26.36
2022-08-24T10:49:36.389Z,26.49
2022-08-24T10:52:12.261Z,26.58
2022-08-24T10:54:39.143Z,26.62
2022-08-24T10:57:12.149Z,26.68
2022-08-24T10:59:57.419Z,26.67
2022-08-24T11:02:31.398Z,26.77
2022-08-24T11:05:05.746Z,26.84
2022-08-24T11:07:33.069Z,26.95
2022-08-24T11:10:02.847Z,27.09
2022-08-24T11:12:29.440Z,27.17
2022-08-24T11:14:59.573Z,27.18
2022-08-24T11:17:29.440Z,27.23
2022-08-24T11:19:57.466Z,27.37
2022-08-24T11:22:57.933Z,27.47
2022-08-24T11:25:30.444Z,27.58
2022-08-24T11:28:09.611Z,27.63
2022-08-24T11:30:40.177Z,27.72
2022-08-24T11:33:26.097Z,27.80
2022-08-24T11:35:52.841Z,27.95
2022-08-24T11:38:23.645Z,28.16
2022-08-24T11:40:52.035Z,28.30
2022-08-24T11:43:42.922Z,28.33
2022-08-24T11:46:15.972Z,28.41
2022-08-24T11:49:03.731Z,28.58
2022-08-24T11:51:44.389Z,28.65
2022-08-24T11:54:34.574Z,28.83
2022-08-24T11:57:08.467Z,29.03
2022-08-24T11:59:57.269Z,29.16
2022-08-24T12:02:35.548Z,29.29
2022-08-24T12:05:26.746Z,29.35
2022-08-24T12:08:10.304Z,29.40
2022-08-24T12:10:57.924Z,29.60
2022-08-24T12:13:58.528Z,29.72
2022-08-24T12:17:02.290Z,29.81
2022-08-24T12:19:36.310Z,29.86
2022-08-24T12:22:07.209Z,29.79
2022-08-24T12:24:41.360Z,29.92
2022-08-24T12:27:29.541Z,30.09
2022-08-24T12:30:05.903Z,30.20
2022-08-24T12:33:05.682Z,30.30
2022-08-24T12:35:42.532Z,30.26
2022-08-24T12:38:13.297Z,30.41
2022-08-24T12:40:48.186Z,30.49
2022-08-24T12:43:25.253Z,30.65
2022-08-24T12:45:55.208Z,30.72
2022-08-24T12:48:27.643Z,30.73
2022-08-24T12:51:39.486Z,30.49
2022-08-24T12:54:11.900Z,30.49
2022-08-24T12:57:02.922Z,30.77
2022-08-24T12:59:39.553Z,30.82
2022-08-24T13:02:28.315Z,30.73
2022-08-24T13:04:59.402Z,30.76
2022-08-24T13:07:39.926Z,30.83
2022-08-24T13:10:14.663Z,30.88
2022-08-24T13:12:45.045Z,31.10
2022-08-24T13:15:28.365Z,31.20
2022-08-24T13:18:07.470Z,31.32
2022-08-24T13:20:36.985Z,31.39
2022-08-24T13:23:13.981Z,31.45
2022-08-24T13:25:46.794Z,31.36
2022-08-24T13:28:22.549Z,31.34
2022-08-24T13:31:23.167Z,31.43
2022-08-24T13:33:49.855Z,31.49
2022-08-24T13:36:31.666Z,31.32
2022-08-24T13:39:01.276Z,31.39
2022-08-24T13:41:43.112Z,31.46
2022-08-24T13:44:15.854Z,31.48
2022-08-24T13:47:22.783Z,31.22
2022-08-24T13:50:26.777Z,31.13
2022-08-24T13:53:15.091Z,31.11
2022-08-24T13:55:52.072Z,31.37
2022-08-24T13:58:46.426Z,31.64
2022-08-24T14:01:35.118Z,31.90
2022-08-24T14:04:12.004Z,32.02
2022-08-24T14:06:56.624Z,31.56
2022-08-24T14:09:48.438Z,30.85
2022-08-24T14:12:30.458Z,30.36
2022-08-24T14:15:02.673Z,30.02
2022-08-24T14:17:55.466Z,29.71
2022-08-24T14:21:17.960Z,29.74
2022-08-24T14:23:55.649Z,30.01
2022-08-24T14:26:34.394Z,30.34
2022-08-24T14:29:34.666Z,30.49
2022-08-24T14:32:11.785Z,30.30
2022-08-24T14:34:41.885Z,30.08
2022-08-24T14:37:14.464Z,29.88
2022-08-24T14:40:15.267Z,29.69
2022-08-24T14:42:59.820Z,29.53
2022-08-24T14:46:04.309Z,29.42
2022-08-24T14:48:50.398Z,29.40
2022-08-24T14:51:51.092Z,29.33
2022-08-24T14:54:17.675Z,29.35
2022-08-24T14:56:58.903Z,29.24
2022-08-24T14:59:53.224Z,29.19
2022-08-24T15:02:46.862Z,29.42
2022-08-24T15:05:31.500Z,29.52
2022-08-24T15:08:01.397Z,29.65
2022-08-24T15:10:48.731Z,29.78
2022-08-24T15:13:36.176Z,29.93
2022-08-24T15:16:25.535Z,30.05
2022-08-24T15:19:27.239Z,30.12
2022-08-24T15:21:56.966Z,30.13
2022-08-24T15:24:55.076Z,30.14
2022-08-24T15:27:33.045Z,30.01
2022-08-24T15:30:05.682Z,30.00
2022-08-24T15:32:49.694Z,29.91
2022-08-24T15:35:27.123Z,29.94
2022-08-24T15:37:54.114Z,29.89
2022-08-24T15:40:29.622Z,29.82
2022-08-24T15:43:04.023Z,29.91
2022-08-24T15:45:32.412Z,29.92
2022-08-24T15:48:01.423Z,29.83
2022-08-24T15:50:33.800Z,29.72
2022-08-24T15:53:02.926Z,29.68
2022-08-24T15:55:37.883Z,29.76
2022-08-24T15:58:19.493Z,29.79
2022-08-24T16:01:05.127Z,29.79
2022-08-24T16:03:53.959Z,29.96
2022-08-24T16:06:32.352Z,30.09
2022-08-24T16:09:34.340Z,30.12
2022-08-24T16:12:03.739Z,29.97
2022-08-24T16:14:39.156Z,29.78
2022-08-24T16:17:49.218Z,29.70
2022-08-24T16:20:23.421Z,29.61
2022-08-24T16:23:00.247Z,29.54
2022-08-24T16:25:31.105Z,29.65
2022-08-24T16:28:09.915Z,29.64
2022-08-24T16:30:39.289Z,29.66
2022-08-24T16:33:06.724Z,29.55
2022-08-24T16:35:33.482Z,29.48
2022-08-24T16:38:01.064Z,29.39
2022-08-24T16:40:29.344Z,29.28
2022-08-24T16:42:56.500Z,29.31
2022-08-24T16:45:23.869Z,29.30
2022-08-24T16:47:50.544Z,29.30
2022-08-24T16:50:20.519Z,29.27
2022-08-24T16:52:48.971Z,29.19
2022-08-24T16:55:15.700Z,29.23
2022-08-24T16:57:42.515Z,29.24
2022-08-24T17:00:16.232Z,29.15
2022-08-24T17:02:44.861Z,29.03
2022-08-24T17:05:11.883Z,28.90
2022-08-24T17:07:38.542Z,28.80
2022-08-24T17:10:09.097Z,28.73
2022-08-24T17:12:37.024Z,28.66
2022-08-24T17:15:06.492Z,28.54
2022-08-24T17:17:33.443Z,28.42
2022-08-24T17:20:00.329Z,28.20
2022-08-24T17:22:27.601Z,28.05
2022-08-24T17:24:54.244Z,27.82
2022-08-24T17:27:26.783Z,27.63
2022-08-24T17:29:53.401Z,27.37
2022-08-24T17:32:20.014Z,27.13
2022-08-24T17:34:46.595Z,26.82
2022-08-24T17:37:13.283Z,26.56
2022-08-24T17:39:40.088Z,26.32
2022-08-24T17:42:20.985Z,26.03
2022-08-24T17:44:47.814Z,25.78
2022-08-24T17:47:15.252Z,25.59
2022-08-24T17:49:41.896Z,25.42
2022-08-24T17:52:08.507Z,25.28
2022-08-24T17:54:35.264Z,25.16
2022-08-24T17:57:02.127Z,25.00
2022-08-24T17:59:31.786Z,24.89
2022-08-24T18:02:00.713Z,24.79
2022-08-24T18:04:30.057Z,24.73
2022-08-24T18:07:03.320Z,24.63
2022-08-24T18:09:37.377Z,24.53
2022-08-24T18:12:08.765Z,24.41
2022-08-24T18:14:36.031Z,24.37
2022-08-24T18:17:06.910Z,24.27
2022-08-24T18:19:34.471Z,24.19
2022-08-24T18:22:01.877Z,24.17
2022-08-24T18:24:32.594Z,24.14
2022-08-24T18:27:10.852Z,24.12
2022-08-24T18:29:40.646Z,24.09
2022-08-24T18:32:10.111Z,24.04
2022-08-24T18:34:37.126Z,23.99
2022-08-24T18:37:04.223Z,23.97
2022-08-24T18:39:30.868Z,23.90
2022-08-24T18:42:01.118Z,23.84
2022-08-24T18:44:31.620Z,23.80
2022-08-24T18:46:59.482Z,23.76
2022-08-24T18:49:26.837Z,23.75
2022-08-24T18:51:53.588Z,23.73
2022-08-24T18:54:29.092Z,23.68
2022-08-24T18:56:55.699Z,23.58
2022-08-24T18:59:22.362Z,23.42
2022-08-24T19:02:09.655Z,23.33
2022-08-24T19:04:44.190Z,23.22
2022-08-24T19:07:11.134Z,23.14
2022-08-24T19:09:38.214Z,23.05
2022-08-24T19:12:06.363Z,22.95
2022-08-24T19:14:34.396Z,22.93
2022-08-24T19:17:01.117Z,22.89
2022-08-24T19:19:27.763Z,22.86
2022-08-24T19:21:54.607Z,22.83
2022-08-24T19:24:25.623Z,22.82
2022-08-24T19:26:52.463Z,22.79
2022-08-24T19:29:38.910Z,22.73
2022-08-24T19:32:10.039Z,22.62
2022-08-24T19:34:42.970Z,22.68
2022-08-24T19:37:10.020Z,22.66
2022-08-24T19:39:36.609Z,22.63
2022-08-24T19:42:04.234Z,22.58
2022-08-24T19:44:51.971Z,22.52
2022-08-24T19:47:18.750Z,22.51
2022-08-24T19:49:45.712Z,22.48
2022-08-24T19:52:13.457Z,22.48
2022-08-24T19:54:44.504Z,22.42
2022-08-24T19:57:29.327Z,22.45
2022-08-24T19:59:59.967Z,22.38
2022-08-24T20:02:27.094Z,22.36
2022-08-24T20:04:53.785Z,22.34
2022-08-24T20:07:20.596Z,22.34
2022-08-24T20:09:47.272Z,22.32
2022-08-24T20:12:13.936Z,22.31
2022-08-24T20:14:40.566Z,22.31
2022-08-24T20:17:07.160Z,22.27
2022-08-24T20:19:37.898Z,22.22
2022-08-24T20:22:13.135Z,22.24
2022-08-24T20:24:40.346Z,22.18
2022-08-24T20:27:06.915Z,22.15
2022-08-24T20:29:33.536Z,22.11
2022-08-24T20:32:02.554Z,22.10
2022-08-24T20:34:29.697Z,22.12
2022-08-24T20:36:57.400Z,22.10
2022-08-24T20:39:26.048Z,22.09
2022-08-24T20:41:53.398Z,22.08
2022-08-24T20:44:21.116Z,22.08
2022-08-24T20:46:50.097Z,22.05
2022-08-24T20:49:21.138Z,22.04
2022-08-24T20:51:47.613Z,22.02
2022-08-24T20:54:14.848Z,21.96
2022-08-24T20:56:43.981Z,21.94
2022-08-24T20:59:13.011Z,21.92
2022-08-24T21:01:43.520Z,21.91
2022-08-24T21:04:10.639Z,21.88
2022-08-24T21:06:40.458Z,21.86
2022-08-24T21:09:07.416Z,21.84
2022-08-24T21:11:40.987Z,21.86
2022-08-24T21:14:08.574Z,21.88
2022-08-24T21:16:39.561Z,21.90
2022-08-24T21:19:06.745Z,21.89
2022-08-24T21:21:33.690Z,21.82
2022-08-24T21:24:01.768Z,21.85
2022-08-24T21:26:29.516Z,21.86
2022-08-24T21:28:58.124Z,21.86
2022-08-24T21:31:26.337Z,21.84
2022-08-24T21:34:12.285Z,21.87
2022-08-24T21:36:39.976Z,21.84
2022-08-24T21:39:10.718Z,21.86
2022-08-24T21:41:37.989Z,21.83
2022-08-24T21:44:04.610Z,21.80
2022-08-24T21:46:35.422Z,21.78
2022-08-24T21:49:03.058Z,21.76
2022-08-24T21:51:30.318Z,21.74
2022-08-24T21:53:59.576Z,21.71
2022-08-24T21:56:30.616Z,21.69
2022-08-24T21:58:57.464Z,21.66
2022-08-24T22:01:24.220Z,21.62
2022-08-24T22:03:50.932Z,21.65
2022-08-24T22:06:18.304Z,21.64
2022-08-24T22:08:44.918Z,21.64
2022-08-24T22:11:13.438Z,21.61
2022-08-24T22:13:40.536Z,21.62
2022-08-24T22:16:07.670Z,21.63
2022-08-24T22:18:35.392Z,21.63
2022-08-24T22:21:11.590Z,21.62
2022-08-24T22:23:38.980Z,21.57
2022-08-24T22:26:05.835Z,21.57
2022-08-24T22:28:37.981Z,21.51
2022-08-24T22:31:18.318Z,21.54
2022-08-24T22:33:45.088Z,21.52
2022-08-24T22:36:15.367Z,21.49
2022-08-24T22:38:42.700Z,21.45
2022-08-24T22:41:09.770Z,21.43
2022-08-24T22:43:54.965Z,21.39
2022-08-24T22:46:23.157Z,21.33
2022-08-24T22:48:49.950Z,21.36
2022-08-24T22:51:16.583Z,21.34
2022-08-24T22:53:43.159Z,21.32
2022-08-24T22:56:19.176Z,21.28
2022-08-24T22:58:46.251Z,21.22
2022-08-24T23:01:31.050Z,21.18
2022-08-24T23:04:01.837Z,21.14
2022-08-24T23:06:28.994Z,21.11
2022-08-24T23:08:56.138Z,21.09
2022-08-24T23:11:26.706Z,21.08
2022-08-24T23:13:56.333Z,21.07
2022-08-24T23:16:24.917Z,21.05
2022-08-24T23:19:10.012Z,21.01
2022-08-24T23:21:36.747Z,20.98
2022-08-24T23:24:03.962Z,20.96
2022-08-24T23:26:32.591Z,20.94
2022-08-24T23:29:00.606Z,20.96
2022-08-24T23:31:27.335Z,20.96
2022-08-24T23:33:54.205Z,20.96
2022-08-24T23:36:23.636Z,20.96
2022-08-24T23:38:55.081Z,20.97
2022-08-24T23:41:33.533Z,20.98
2022-08-24T23:44:03.163Z,20.98
2022-08-24T23:46:29.822Z,20.95
2022-08-24T23:48:57.941Z,20.92
2022-08-24T23:51:27.133Z,20.91
2022-08-24T23:53:53.914Z,20.89
2022-08-24T23:56:25.431Z,20.85
2022-08-24T23:58:53.130Z,20.82
